Time;durP1;ratioP1;P1;durP2;ratioP2;P2;SDS_P1;SDS_P2;PMS_P1;PMS_P2;Temp;Humidity;BMP_temperature;BMP_pressure;BME280_temperature;BME280_humidity;BME280_pressure;Samples;Min_cycle;Max_cycle;Signal;HPM_P1;HPM_P2
2022/06/24 00:00:44;;;;;;;3.97;2.35;;;23.60;61.00;;;;;;5070538;28;20098;-60
2022/06/24 00:03:17;;;;;;;2.72;2.10;;;23.60;61.00;;;;;;5071610;28;20041;-60
2022/06/24 00:05:42;;;;;;;4.70;2.13;;;23.60;61.00;;;;;;5072414;28;20067;-60
2022/06/24 00:08:08;;;;;;;3.95;2.03;;;23.60;61.00;;;;;;5070526;28;20488;-60
2022/06/24 00:10:35;;;;;;;3.47;2.20;;;23.60;61.00;;;;;;5071243;28;20041;-60
2022/06/24 00:13:01;;;;;;;3.67;2.10;;;23.60;61.00;;;;;;5071942;28;20492;-60
2022/06/24 00:15:30;;;;;;;5.47;2.30;;;23.60;61.00;;;;;;5070568;28;20051;-60
2022/06/24 00:17:56;;;;;;;3.78;2.33;;;23.60;61.00;;;;;;5072314;28;20131;-60
2022/06/24 00:20:22;;;;;;;4.53;2.33;;;23.60;61.00;;;;;;5071273;28;20048;-60
2022/06/24 00:22:50;;;;;;;3.05;2.00;;;23.60;61.00;;;;;;5071371;28;20044;-59
2022/06/24 00:25:20;;;;;;;3.45;1.80;;;23.60;61.10;;;;;;5072661;28;20045;-59
2022/06/24 00:28:04;;;;;;;4.30;2.50;;;23.60;61.10;;;;;;5072145;28;20055;-60
2022/06/24 00:30:58;;;;;;;4.10;2.30;;;23.60;61.00;;;;;;5071636;28;20123;-60
2022/06/24 00:33:25;;;;;;;2.78;1.75;;;23.60;61.10;;;;;;5072503;28;20049;-61
2022/06/24 00:35:56;;;;;;;3.22;2.00;;;23.60;61.10;;;;;;5071278;28;20047;-60
2022/06/24 00:38:22;;;;;;;4.10;2.22;;;23.60;61.10;;;;;;5071709;28;20492;-60
2022/06/24 00:40:49;;;;;;;3.63;2.28;;;23.60;61.10;;;;;;5071716;28;20048;-61
2022/06/24 00:43:22;;;;;;;4.17;2.10;;;23.60;61.10;;;;;;5070095;28;20076;-60
2022/06/24 00:45:48;;;;;;;2.83;2.13;;;23.60;61.10;;;;;;5070875;28;20075;-61
2022/06/24 00:48:14;;;;;;;2.95;2.08;;;23.60;61.10;;;;;;5070894;28;20072;-61
2022/06/24 00:50:47;;;;;;;2.33;1.90;;;23.60;61.10;;;;;;5071369;28;20046;-60
2022/06/24 00:53:12;;;;;;;3.58;2.00;;;23.60;61.10;;;;;;5070995;28;20052;-60
2022/06/24 00:55:38;;;;;;;2.85;1.83;;;23.60;61.10;;;;;;5071021;28;20392;-60
2022/06/24 00:58:04;;;;;;;3.25;1.85;;;23.60;61.10;;;;;;5069867;28;20032;-59
2022/06/24 01:00:31;;;;;;;2.55;1.98;;;23.60;61.10;;;;;;5072058;28;20395;-60
2022/06/24 01:03:04;;;;;;;3.65;2.10;;;23.60;61.10;;;;;;5071678;28;20051;-60
2022/06/24 01:05:30;;;;;;;2.90;2.03;;;23.60;61.10;;;;;;5071427;28;20045;-60
2022/06/24 01:07:56;;;;;;;5.25;2.10;;;23.60;61.10;;;;;;5074868;28;20040;-60
2022/06/24 01:10:22;;;;;;;5.22;2.20;;;23.60;61.10;;;;;;5075743;28;20045;-60
2022/06/24 01:12:47;;;;;;;4.95;2.33;;;23.60;61.00;;;;;;5074294;28;20084;-60
2022/06/24 01:15:13;;;;;;;3.22;2.00;;;23.50;61.00;;;;;;5075757;28;20408;-60
2022/06/24 01:17:39;;;;;;;3.80;2.40;;;23.60;61.20;;;;;;5075459;28;20079;-60
2022/06/24 01:20:07;;;;;;;5.72;2.08;;;23.60;61.00;;;;;;5074904;28;20115;-60
2022/06/24 01:22:32;;;;;;;3.15;1.98;;;23.60;61.60;;;;;;5075264;28;20057;-60
2022/06/24 01:24:58;;;;;;;3.13;1.77;;;23.60;61.00;;;;;;5075064;28;20135;-60
2022/06/24 01:27:24;;;;;;;3.35;2.10;;;23.60;61.10;;;;;;5074895;28;20036;-60
2022/06/24 01:29:49;;;;;;;3.65;2.28;;;23.60;61.00;;;;;;5074694;28;20081;-60
2022/06/24 01:32:15;;;;;;;3.45;2.15;;;23.50;60.90;;;;;;5074571;28;20098;-60
2022/06/24 01:34:40;;;;;;;3.40;2.30;;;23.60;61.00;;;;;;5074843;28;20036;-60
2022/06/24 01:37:06;;;;;;;2.90;2.20;;;23.60;61.00;;;;;;5075173;28;20135;-60
2022/06/24 01:39:31;;;;;;;4.15;2.33;;;23.60;61.00;;;;;;5074557;28;20060;-60
2022/06/24 01:41:57;;;;;;;2.17;1.83;;;23.50;60.90;;;;;;5074744;28;20127;-60
2022/06/24 01:44:23;;;;;;;5.72;2.17;;;23.50;60.90;;;;;;5075215;28;20064;-61
2022/06/24 01:46:48;;;;;;;2.72;2.10;;;23.50;60.90;;;;;;5072737;28;20472;-61
2022/06/24 01:49:14;;;;;;;2.50;1.80;;;23.50;60.90;;;;;;5074789;28;20128;-60
2022/06/24 01:51:41;;;;;;;3.20;2.00;;;23.60;60.90;;;;;;5074525;28;20048;-60
2022/06/24 01:54:06;;;;;;;3.70;2.08;;;23.50;60.90;;;;;;5073002;28;20128;-61
2022/06/24 01:56:32;;;;;;;2.78;2.22;;;23.50;60.90;;;;;;5074864;28;20540;-60
2022/06/24 01:58:57;;;;;;;2.97;1.83;;;23.50;60.90;;;;;;5074616;28;20048;-60
2022/06/24 02:01:23;;;;;;;2.55;2.00;;;23.50;60.90;;;;;;5062499;28;20094;-61
2022/06/24 02:03:48;;;;;;;3.38;2.03;;;23.50;60.90;;;;;;5053209;28;20065;-61
2022/06/24 02:06:14;;;;;;;2.30;1.90;;;23.50;60.90;;;;;;5054150;28;20386;-60
2022/06/24 02:08:40;;;;;;;2.70;1.80;;;23.50;60.90;;;;;;5053449;28;20044;-60
2022/06/24 02:13:49;;;;;;;3.45;2.00;;;23.50;60.90;;;;;;5054040;28;20045;-60
2022/06/24 02:16:15;;;;;;;5.00;2.47;;;23.50;60.90;;;;;;5054127;28;20037;-61
2022/06/24 02:18:41;;;;;;;2.92;2.05;;;23.50;60.90;;;;;;5053237;28;20052;-61
2022/06/24 02:21:06;;;;;;;3.15;2.20;;;23.50;60.90;;;;;;5053074;28;20045;-60
2022/06/24 02:23:32;;;;;;;2.75;2.15;;;23.50;60.90;;;;;;5053258;28;20404;-60
2022/06/24 02:25:58;;;;;;;2.83;1.70;;;23.50;60.90;;;;;;5054636;28;20040;-61
2022/06/24 02:28:23;;;;;;;2.80;2.20;;;23.50;60.90;;;;;;5053142;28;20128;-60
2022/06/24 02:30:52;;;;;;;2.92;2.05;;;23.50;60.90;;;;;;5054030;28;20048;-61
2022/06/24 02:33:17;;;;;;;2.30;1.92;;;23.50;60.90;;;;;;5053877;28;20055;-61
2022/06/24 02:35:43;;;;;;;2.05;1.63;;;23.50;60.90;;;;;;5053233;28;20127;-61
2022/06/24 02:38:08;;;;;;;3.33;2.05;;;23.50;60.90;;;;;;5054057;28;20515;-60
2022/06/24 02:40:47;;;;;;;3.03;1.80;;;23.50;60.90;;;;;;5054094;28;20411;-60
2022/06/24 02:43:36;;;;;;;4.25;2.10;;;23.50;60.90;;;;;;5053174;28;20116;-60
2022/06/24 02:46:02;;;;;;;3.50;2.00;;;23.50;60.90;;;;;;5052907;28;20139;-60
2022/06/24 02:48:28;;;;;;;2.55;1.88;;;23.50;60.90;;;;;;5053971;28;20045;-60
2022/06/24 02:50:59;;;;;;;2.90;1.98;;;23.50;60.90;;;;;;5052660;28;20389;-61
2022/06/24 02:53:25;;;;;;;3.83;1.95;;;23.50;60.90;;;;;;5052601;28;20099;-60
2022/06/24 02:55:58;;;;;;;3.13;1.98;;;23.50;60.90;;;;;;5053272;28;20041;-60
2022/06/24 02:58:24;;;;;;;2.58;1.70;;;23.50;60.90;;;;;;5053045;28;20476;-61
2022/06/24 03:00:50;;;;;;;2.42;1.77;;;23.50;60.90;;;;;;5053227;28;20040;-61
2022/06/24 03:03:16;;;;;;;2.40;1.70;;;23.50;60.90;;;;;;5053468;28;20115;-61
2022/06/24 03:05:42;;;;;;;3.85;1.90;;;23.50;60.90;;;;;;5052431;28;20049;-60
2022/06/24 03:08:08;;;;;;;2.47;1.65;;;23.50;60.90;;;;;;5053660;28;20051;-61
2022/06/24 03:10:34;;;;;;;3.83;2.00;;;23.50;60.90;;;;;;5052818;28;20083;-61
2022/06/24 03:12:59;;;;;;;2.70;1.70;;;23.50;60.90;;;;;;5052957;28;20040;-60
2022/06/24 03:15:25;;;;;;;3.22;1.88;;;23.50;60.90;;;;;;5053540;28;20087;-61
2022/06/24 03:17:50;;;;;;;2.78;1.80;;;23.50;60.90;;;;;;5052250;28;20396;-61
2022/06/24 03:20:16;;;;;;;2.70;1.83;;;23.50;60.90;;;;;;5053758;28;20057;-61
2022/06/24 03:22:42;;;;;;;3.20;2.05;;;23.50;60.90;;;;;;5052739;28;20057;-60
2022/06/24 03:25:08;;;;;;;3.13;1.80;;;23.50;60.90;;;;;;5052443;28;20132;-61
2022/06/24 03:27:34;;;;;;;2.35;1.80;;;23.40;60.80;;;;;;5053051;28;20036;-61
2022/06/24 03:29:59;;;;;;;2.70;1.90;;;23.40;60.90;;;;;;5052825;28;20131;-61
2022/06/24 03:32:25;;;;;;;3.15;1.98;;;23.50;60.90;;;;;;5052674;28;20033;-61
2022/06/24 03:34:50;;;;;;;3.45;2.10;;;23.40;60.80;;;;;;5051260;28;20477;-60
2022/06/24 03:37:16;;;;;;;3.55;1.95;;;23.50;60.90;;;;;;5052847;28;20049;-60
2022/06/24 03:39:42;;;;;;;3.42;2.22;;;23.50;60.90;;;;;;5052113;28;20073;-60
2022/06/24 03:42:07;;;;;;;2.92;1.70;;;23.40;60.80;;;;;;5051582;28;20066;-60
2022/06/24 03:44:33;;;;;;;2.88;1.90;;;23.40;60.80;;;;;;5052889;28;20045;-59
2022/06/24 03:46:58;;;;;;;2.15;1.70;;;23.40;60.80;;;;;;5051916;28;20040;-60
2022/06/24 03:49:24;;;;;;;3.50;2.08;;;23.40;60.80;;;;;;5052628;28;20118;-60
2022/06/24 03:51:49;;;;;;;2.60;2.00;;;23.40;60.80;;;;;;5052497;28;20392;-60
2022/06/24 03:54:15;;;;;;;2.95;1.92;;;23.40;60.80;;;;;;5052009;28;20045;-60
2022/06/24 03:56:41;;;;;;;2.45;1.80;;;23.40;60.80;;;;;;5052179;28;20049;-60
2022/06/24 03:59:06;;;;;;;3.03;2.05;;;23.40;60.80;;;;;;5052352;28;20088;-60
2022/06/24 04:01:32;;;;;;;2.50;1.83;;;23.40;60.80;;;;;;5056750;28;20050;-60
2022/06/24 04:03:57;;;;;;;3.05;2.00;;;23.40;60.80;;;;;;5066260;28;20040;-60
2022/06/24 04:06:23;;;;;;;2.42;1.88;;;23.40;60.80;;;;;;5071727;28;20215;-60
2022/06/24 04:08:48;;;;;;;3.92;1.90;;;23.40;60.80;;;;;;5069798;28;20072;-60
2022/06/24 04:11:17;;;;;;;2.50;1.90;;;23.40;60.70;;;;;;5072422;28;20079;-60
2022/06/24 04:13:43;;;;;;;2.63;2.20;;;23.40;60.70;;;;;;5072014;28;20052;-61
2022/06/24 04:16:08;;;;;;;2.42;1.80;;;23.40;60.70;;;;;;5071833;28;20044;-60
2022/06/24 04:18:34;;;;;;;3.38;1.88;;;23.40;60.70;;;;;;5071252;28;20044;-60
2022/06/24 04:21:00;;;;;;;3.08;2.20;;;23.40;60.70;;;;;;5071312;28;20099;-60
2022/06/24 04:23:25;;;;;;;3.03;1.77;;;23.40;60.80;;;;;;5072177;28;20074;-60
2022/06/24 04:25:51;;;;;;;2.72;1.90;;;23.50;60.80;;;;;;5072116;28;20127;-60
2022/06/24 04:28:16;;;;;;;2.22;1.80;;;23.50;60.90;;;;;;5070106;28;20044;-60
2022/06/24 04:30:42;;;;;;;2.70;1.80;;;23.50;60.90;;;;;;5072357;28;20097;-61
2022/06/24 04:33:08;;;;;;;2.60;1.70;;;23.50;60.90;;;;;;5072427;28;20132;-61
2022/06/24 04:35:33;;;;;;;2.58;1.90;;;23.50;60.90;;;;;;5071774;28;20037;-61
2022/06/24 04:37:59;;;;;;;3.15;1.70;;;23.50;60.90;;;;;;5072142;28;20623;-61
2022/06/24 04:40:24;;;;;;;2.58;1.75;;;23.50;60.90;;;;;;5072461;28;20048;-60
2022/06/24 04:42:50;;;;;;;2.33;1.70;;;23.50;60.90;;;;;;5074483;28;20040;-61
2022/06/24 04:45:15;;;;;;;2.67;2.03;;;23.50;60.90;;;;;;5076066;28;20131;-60
2022/06/24 04:47:41;;;;;;;3.08;2.20;;;23.50;60.90;;;;;;5075925;28;20047;-61
2022/06/24 04:50:07;;;;;;;3.00;1.65;;;23.50;60.90;;;;;;5075485;28;20079;-60
2022/06/24 04:52:33;;;;;;;2.22;1.67;;;23.50;60.90;;;;;;5076071;28;20036;-61
2022/06/24 04:54:59;;;;;;;2.72;1.90;;;23.50;60.90;;;;;;5075570;28;20090;-60
2022/06/24 04:57:25;;;;;;;3.53;1.80;;;23.50;60.90;;;;;;5075392;28;20051;-61
2022/06/24 04:59:50;;;;;;;2.15;1.70;;;23.50;60.90;;;;;;5075551;28;20036;-60
2022/06/24 05:02:16;;;;;;;2.20;1.90;;;23.50;61.00;;;;;;5075754;28;20388;-61
2022/06/24 05:04:41;;;;;;;2.97;1.80;;;23.50;61.00;;;;;;5074999;28;20451;-61
2022/06/24 05:07:07;;;;;;;4.25;1.70;;;23.50;61.00;;;;;;5075886;28;20457;-60
2022/06/24 05:09:33;;;;;;;2.20;1.90;;;23.50;61.00;;;;;;5075587;28;20090;-60
2022/06/24 05:11:59;;;;;;;2.10;1.77;;;23.50;61.00;;;;;;5074503;28;20048;-60
2022/06/24 05:14:24;;;;;;;3.17;1.80;;;23.50;60.90;;;;;;5075752;28;20063;-61
2022/06/24 05:16:50;;;;;;;2.65;1.90;;;23.50;60.90;;;;;;5075193;28;20043;-60
2022/06/24 05:19:15;;;;;;;2.65;1.88;;;23.50;60.90;;;;;;5074964;28;20041;-60
2022/06/24 05:21:41;;;;;;;3.38;2.22;;;23.50;60.90;;;;;;5074880;28;20040;-61
2022/06/24 05:24:07;;;;;;;3.22;1.95;;;23.50;60.90;;;;;;5075077;28;20066;-61
2022/06/24 05:26:33;;;;;;;4.25;2.10;;;23.50;60.90;;;;;;5074890;28;20052;-61
2022/06/24 05:28:58;;;;;;;3.50;2.00;;;23.50;60.90;;;;;;5075147;28;20388;-61
2022/06/24 05:31:24;;;;;;;3.53;2.33;;;23.50;61.00;;;;;;5074779;28;20047;-61
2022/06/24 05:33:49;;;;;;;3.10;1.95;;;23.50;61.00;;;;;;5075016;28;20064;-61
2022/06/24 05:36:15;;;;;;;4.30;2.33;;;23.50;61.00;;;;;;5075232;28;20044;-61
2022/06/24 05:38:42;;;;;;;2.70;1.92;;;23.50;61.10;;;;;;5073906;28;20040;-61
2022/06/24 05:41:08;;;;;;;2.40;1.90;;;23.50;61.10;;;;;;5075261;28;20040;-61
2022/06/24 05:43:33;;;;;;;3.10;2.03;;;23.50;61.10;;;;;;5075163;28;20171;-61
2022/06/24 05:45:59;;;;;;;4.00;2.00;;;23.50;61.10;;;;;;5074027;28;20044;-61
2022/06/24 05:48:24;;;;;;;3.30;2.20;;;23.50;61.20;;;;;;5075083;28;20042;-61
2022/06/24 05:50:50;;;;;;;3.13;2.00;;;23.50;61.20;;;;;;5074542;28;20514;-61
2022/06/24 05:56:00;;;;;;;4.35;2.10;;;23.50;61.30;;;;;;5073660;28;20044;-61
2022/06/24 05:58:29;;;;;;;2.30;1.65;;;23.40;61.20;;;;;;5074545;28;20036;-61
2022/06/24 06:00:54;;;;;;;2.55;2.00;;;23.40;61.20;;;;;;5073925;28;20064;-61
2022/06/24 06:03:24;;;;;;;3.20;2.10;;;23.40;61.90;;;;;;5074840;28;20550;-60
2022/06/24 06:05:50;;;;;;;2.72;2.08;;;23.40;61.30;;;;;;5072624;28;20048;-60
2022/06/24 06:08:15;;;;;;;3.47;2.00;;;23.40;61.40;;;;;;5074235;28;20048;-60
2022/06/24 06:10:43;;;;;;;2.95;2.00;;;23.40;61.40;;;;;;5074442;28;20041;-60
2022/06/24 06:13:09;;;;;;;3.88;2.42;;;23.40;61.40;;;;;;5072833;28;20094;-61
2022/06/24 06:15:35;;;;;;;3.38;2.40;;;23.40;61.50;;;;;;5073594;28;20295;-61
2022/06/24 06:18:01;;;;;;;3.60;2.10;;;23.40;62.10;;;;;;5073997;28;20598;-61
2022/06/24 06:20:27;;;;;;;4.25;2.05;;;23.40;61.60;;;;;;5072714;28;20051;-60
2022/06/24 06:22:52;;;;;;;3.25;2.30;;;23.40;61.90;;;;;;5072407;28;20052;-59
2022/06/24 06:25:18;;;;;;;3.70;2.28;;;23.50;62.20;;;;;;5073511;28;20131;-61
2022/06/24 06:27:44;;;;;;;6.07;2.50;;;23.40;62.40;;;;;;5072799;28;20051;-60
2022/06/24 06:30:10;;;;;;;6.68;2.83;;;23.50;62.70;;;;;;5074018;28;20055;-60
2022/06/24 06:32:36;;;;;;;7.45;2.90;;;23.50;62.90;;;;;;5074542;28;20110;-60
2022/06/24 06:35:03;;;;;;;4.97;2.10;;;23.50;63.10;;;;;;5072948;28;20441;-60
2022/06/24 06:37:28;;;;;;;5.13;2.25;;;23.50;63.20;;;;;;5074110;28;20143;-60
2022/06/24 06:39:54;;;;;;;6.53;2.67;;;23.50;63.20;;;;;;5073653;28;20127;-60
2022/06/24 06:42:19;;;;;;;4.20;2.30;;;23.50;63.20;;;;;;5073032;28;20048;-60
2022/06/24 06:44:45;;;;;;;6.78;2.42;;;23.50;63.30;;;;;;5072773;28;20052;-60
2022/06/24 06:47:10;;;;;;;3.70;2.45;;;23.60;63.40;;;;;;5073399;28;20131;-61
2022/06/24 06:49:36;;;;;;;5.75;2.38;;;23.50;63.50;;;;;;5073125;28;20044;-62
2022/06/24 06:52:02;;;;;;;5.60;2.00;;;23.60;63.70;;;;;;5073198;28;20044;-62
2022/06/24 06:54:29;;;;;;;3.92;2.30;;;23.60;63.80;;;;;;5073444;28;20044;-63
2022/06/24 06:56:58;;;;;;;5.35;2.47;;;23.60;63.80;;;;;;5072796;28;20067;-61
2022/06/24 06:59:23;;;;;;;4.05;2.45;;;23.60;63.90;;;;;;5073566;28;20082;-62
2022/06/24 07:01:49;;;;;;;3.72;2.22;;;23.60;64.00;;;;;;5073157;28;20048;-62
2022/06/24 07:04:15;;;;;;;4.82;2.20;;;23.60;64.10;;;;;;5072201;28;20048;-62
2022/06/24 07:06:40;;;;;;;3.85;2.20;;;23.60;64.10;;;;;;5073231;28;20040;-63
2022/06/24 07:09:06;;;;;;;4.13;2.30;;;23.60;64.30;;;;;;5072642;28;20433;-61
2022/06/24 07:11:32;;;;;;;4.60;2.33;;;23.60;64.30;;;;;;5072516;28;20040;-61
2022/06/24 07:13:57;;;;;;;2.97;2.17;;;23.60;64.30;;;;;;5072209;28;20032;-62
2022/06/24 07:16:23;;;;;;;4.35;2.25;;;23.60;64.40;;;;;;5072423;28;20120;-61
2022/06/24 07:18:48;;;;;;;7.63;2.42;;;23.60;64.40;;;;;;5071993;28;20131;-62
2022/06/24 07:21:14;;;;;;;5.43;2.35;;;23.60;64.40;;;;;;5073289;28;20396;-62
2022/06/24 07:23:40;;;;;;;5.75;2.58;;;23.60;64.50;;;;;;5072526;28;20395;-62
2022/06/24 07:26:05;;;;;;;5.18;2.28;;;23.60;64.50;;;;;;5072180;28;20420;-62
2022/06/24 07:28:33;;;;;;;5.00;2.38;;;23.60;64.60;;;;;;5070952;28;20052;-60
2022/06/24 07:30:58;;;;;;;6.17;2.43;;;23.60;64.70;;;;;;5071560;28;20537;-62
2022/06/24 07:33:24;;;;;;;3.38;2.10;;;23.60;64.60;;;;;;5073477;28;20310;-61
2022/06/24 07:35:50;;;;;;;7.47;2.55;;;23.60;64.60;;;;;;5072126;28;20048;-59
2022/06/24 07:38:15;;;;;;;5.25;2.30;;;23.60;64.60;;;;;;5070673;28;20044;-59
2022/06/24 07:40:41;;;;;;;4.57;2.53;;;23.60;64.70;;;;;;5072053;28;20048;-61
2022/06/24 07:43:07;;;;;;;3.25;2.38;;;23.60;64.60;;;;;;5072572;28;20594;-59
2022/06/24 07:45:33;;;;;;;3.40;2.40;;;23.60;64.70;;;;;;5072118;28;20110;-60
2022/06/24 07:47:58;;;;;;;4.40;2.63;;;23.60;64.70;;;;;;5072129;28;20044;-59
2022/06/24 07:50:24;;;;;;;8.80;2.50;;;23.60;64.80;;;;;;5071962;28;20040;-59
2022/06/24 07:52:50;;;;;;;3.95;2.42;;;23.60;64.80;;;;;;5071427;28;20040;-59
2022/06/24 07:57:59;;;;;;;3.83;2.50;;;23.60;64.80;;;;;;5072119;28;20095;-59
2022/06/24 08:00:25;;;;;;;5.53;2.20;;;23.60;64.70;;;;;;5071775;28;20499;-59
2022/06/24 08:02:51;;;;;;;5.20;2.50;;;23.60;64.80;;;;;;5072582;28;20380;-59
2022/06/24 08:05:16;;;;;;;4.60;2.50;;;23.60;64.70;;;;;;5072200;28;20040;-60
2022/06/24 08:07:43;;;;;;;4.70;2.40;;;23.60;64.70;;;;;;5071426;28;20113;-59
2022/06/24 08:10:09;;;;;;;3.17;2.10;;;23.60;64.70;;;;;;5072385;28;20472;-59
2022/06/24 08:12:35;;;;;;;5.75;2.72;;;23.60;64.80;;;;;;5072245;28;20048;-59
2022/06/24 08:15:00;;;;;;;4.40;2.47;;;23.60;64.80;;;;;;5071619;28;20051;-61
2022/06/24 08:17:26;;;;;;;6.22;2.70;;;23.60;64.80;;;;;;5074741;28;20128;-60
2022/06/24 08:19:51;;;;;;;3.08;2.17;;;23.60;64.90;;;;;;5076004;28;20094;-62
2022/06/24 08:22:17;;;;;;;3.63;2.35;;;23.60;65.00;;;;;;5075924;28;20056;-60
2022/06/24 08:24:43;;;;;;;5.35;2.70;;;23.60;65.10;;;;;;5076143;28;20131;-60
2022/06/24 08:27:08;;;;;;;5.03;2.60;;;23.60;65.10;;;;;;5074424;28;20049;-60
2022/06/24 08:29:34;;;;;;;4.88;2.90;;;23.60;65.20;;;;;;5076429;28;20047;-60
2022/06/24 08:31:59;;;;;;;4.65;2.22;;;23.60;65.20;;;;;;5075991;28;20052;-60
2022/06/24 08:34:25;;;;;;;4.55;2.30;;;23.60;65.30;;;;;;5075948;28;20051;-60
2022/06/24 08:36:50;;;;;;;6.53;2.95;;;23.60;65.30;;;;;;5074921;28;20041;-60
2022/06/24 08:39:16;;;;;;;6.30;2.80;;;23.60;65.40;;;;;;5076243;28;20565;-60
2022/06/24 08:41:44;;;;;;;4.75;2.40;;;23.60;65.40;;;;;;5074788;28;20117;-61
2022/06/24 08:44:10;;;;;;;5.47;2.58;;;23.60;65.50;;;;;;5074496;28;20048;-60
2022/06/24 08:46:35;;;;;;;4.65;2.50;;;23.60;65.50;;;;;;5074760;28;20052;-59
2022/06/24 08:49:01;;;;;;;6.78;2.85;;;23.60;65.50;;;;;;5073844;28;20041;-59
2022/06/24 08:51:27;;;;;;;6.93;2.60;;;23.60;65.40;;;;;;5075044;28;20048;-59
2022/06/24 08:53:55;;;;;;;6.53;2.75;;;23.60;65.50;;;;;;5073555;28;20052;-59
2022/06/24 08:56:21;;;;;;;4.60;2.50;;;23.60;65.50;;;;;;5075655;28;20032;-59
2022/06/24 08:58:47;;;;;;;4.00;2.03;;;23.60;65.60;;;;;;5074897;28;20389;-60
2022/06/24 09:01:14;;;;;;;5.65;2.30;;;23.60;65.60;;;;;;5074261;28;20115;-59
2022/06/24 09:03:39;;;;;;;5.95;2.53;;;23.60;65.70;;;;;;5075474;28;20044;-60
2022/06/24 09:06:15;;;;;;;4.22;2.35;;;23.60;65.80;;;;;;5076689;28;20032;-60
2022/06/24 09:08:54;;;;;;;5.50;2.55;;;23.60;65.60;;;;;;5075435;28;20044;-60
2022/06/24 09:11:20;;;;;;;5.30;2.45;;;23.60;65.60;;;;;;5075104;28;20083;-60
2022/06/24 09:14:00;;;;;;;4.75;2.40;;;23.60;65.70;;;;;;5074945;28;20079;-61
2022/06/24 09:16:25;;;;;;;5.60;2.55;;;23.70;65.80;;;;;;5074805;28;20044;-61
2022/06/24 09:18:55;;;;;;;3.28;2.30;;;23.60;65.70;;;;;;5075154;28;20105;-61
2022/06/24 09:21:25;;;;;;;8.68;2.70;;;23.60;65.90;;;;;;5075328;28;20128;-60
2022/06/24 09:23:52;;;;;;;4.22;2.40;;;23.60;65.90;;;;;;5073480;28;20054;-60
2022/06/24 09:26:27;;;;;;;6.00;2.40;;;23.60;65.90;;;;;;5075346;28;20056;-61
2022/06/24 09:28:55;;;;;;;5.28;2.20;;;23.70;66.10;;;;;;5074020;28;20076;-61
2022/06/24 09:31:20;;;;;;;4.50;2.58;;;23.60;66.10;;;;;;5074956;28;20044;-60
2022/06/24 09:33:47;;;;;;;4.45;2.67;;;23.60;66.20;;;;;;5056930;28;20450;-61
2022/06/24 09:36:13;;;;;;;7.00;2.63;;;23.60;66.20;;;;;;5075051;28;20054;-60
2022/06/24 09:38:56;;;;;;;4.78;2.80;;;23.60;66.20;;;;;;5074353;28;20131;-60
2022/06/24 09:41:23;;;;;;;5.80;2.45;;;23.60;66.20;;;;;;5075133;28;20051;-60
2022/06/24 09:43:52;;;;;;;3.92;2.40;;;23.60;66.30;;;;;;5074356;28;20056;-60
2022/06/24 09:46:23;;;;;;;3.92;2.65;;;23.60;66.30;;;;;;5073108;28;20052;-61
2022/06/24 09:48:53;;;;;;;4.32;2.63;;;23.60;66.40;;;;;;5074348;28;20124;-60
2022/06/24 09:51:19;;;;;;;5.80;2.50;;;23.60;66.40;;;;;;5074579;28;20041;-61
2022/06/24 09:53:45;;;;;;;4.30;2.40;;;23.60;66.50;;;;;;5072536;28;20101;-61
2022/06/24 09:56:11;;;;;;;3.05;2.33;;;23.60;66.40;;;;;;5071655;28;20045;-61
2022/06/24 09:58:42;;;;;;;5.00;2.67;;;23.60;66.40;;;;;;5073526;28;20512;-61
2022/06/24 10:01:08;;;;;;;5.93;2.75;;;23.60;66.30;;;;;;5074894;28;20056;-61
2022/06/24 10:03:34;;;;;;;6.15;2.67;;;23.60;66.30;;;;;;5073377;28;20040;-61
2022/06/24 10:06:02;;;;;;;4.78;2.33;;;23.60;66.30;;;;;;5072409;28;20094;-61
2022/06/24 10:08:30;;;;;;;6.18;2.83;;;23.60;66.30;;;;;;5074780;28;20094;-61
2022/06/24 10:10:56;;;;;;;3.53;2.60;;;23.60;66.30;;;;;;5074361;28;20071;-61
2022/06/24 10:13:28;;;;;;;5.50;2.50;;;23.50;66.30;;;;;;5073563;28;20086;-61
2022/06/24 10:15:55;;;;;;;4.38;2.75;;;23.60;66.50;;;;;;5074005;28;20121;-61
2022/06/24 10:18:27;;;;;;;4.57;2.60;;;23.60;66.60;;;;;;5074061;28;20051;-60
2022/06/24 10:20:55;;;;;;;3.42;2.33;;;23.50;66.50;;;;;;5072622;28;20079;-59
2022/06/24 10:23:39;;;;;;;4.30;2.20;;;23.50;66.50;;;;;;5072193;28;20057;-60
2022/06/24 10:26:16;;;;;;;4.38;2.58;;;23.50;66.60;;;;;;5071899;28;20049;-58
2022/06/24 10:29:00;;;;;;;7.78;2.40;;;23.50;66.70;;;;;;5071550;28;20044;-60
2022/06/24 10:31:56;;;;;;;3.90;2.53;;;23.50;66.80;;;;;;5072954;28;20052;-60
2022/06/24 10:34:28;;;;;;;5.50;2.30;;;23.50;66.80;;;;;;5073564;28;20051;-60
2022/06/24 10:36:57;;;;;;;4.88;3.05;;;23.50;66.90;;;;;;5073812;28;20052;-60
2022/06/24 10:39:23;;;;;;;4.07;2.20;;;23.50;66.90;;;;;;5072031;28;20041;-59
2022/06/24 10:42:05;;;;;;;5.60;2.50;;;23.50;66.90;;;;;;5072968;28;20078;-60
2022/06/24 10:44:38;;;;;;;6.25;2.40;;;23.50;66.90;;;;;;5072589;28;20117;-59
2022/06/24 10:47:10;;;;;;;3.25;2.22;;;23.50;67.00;;;;;;5073008;28;20045;-60
2022/06/24 10:50:00;;;;;;;3.50;2.28;;;23.50;67.00;;;;;;5073436;28;20040;-60
2022/06/24 10:52:51;;;;;;;3.95;2.38;;;23.50;67.00;;;;;;5073954;28;20056;-60
2022/06/24 10:55:28;;;;;;;4.25;2.50;;;23.50;67.00;;;;;;5073108;28;20049;-60
2022/06/24 10:58:00;;;;;;;3.28;2.10;;;23.50;67.00;;;;;;5073044;28;20051;-60
2022/06/24 11:00:42;;;;;;;4.57;2.30;;;23.50;67.00;;;;;;5070530;28;20041;-60
2022/06/24 11:03:07;;;;;;;3.65;2.15;;;23.50;67.10;;;;;;5049362;28;20151;-60
2022/06/24 11:05:34;;;;;;;4.40;2.20;;;23.50;67.10;;;;;;5053878;28;20135;-60
2022/06/24 11:08:00;;;;;;;4.57;2.13;;;23.50;67.10;;;;;;5054668;28;20412;-60
2022/06/24 11:10:29;;;;;;;3.85;2.17;;;23.50;67.20;;;;;;5056872;28;20171;-60
2022/06/24 11:12:58;;;;;;;4.35;2.63;;;23.50;67.20;;;;;;5058948;28;20060;-60
2022/06/24 11:15:36;;;;;;;5.07;2.35;;;23.50;67.20;;;;;;5061984;28;20088;-60
2022/06/24 11:18:07;;;;;;;;;;;23.50;67.20;;;;;;5072807;28;20032;-61
2022/06/24 11:20:35;;;;;;;5.93;1.92;;;23.50;67.00;;;;;;5072269;28;19923;-61
2022/06/24 11:23:10;;;;;;;3.67;2.38;;;23.40;66.90;;;;;;5071706;28;20060;-61
2022/06/24 11:25:37;;;;;;;3.13;2.00;;;23.50;66.90;;;;;;5071825;28;20044;-61
2022/06/24 11:28:04;;;;;;;;;;;23.50;66.80;;;;;;5072758;28;20123;-61
2022/06/24 11:30:29;;;;;;;4.00;2.30;;;23.50;66.70;;;;;;5072782;28;20023;-61
2022/06/24 11:32:57;;;;;;;4.20;1.90;;;23.50;66.80;;;;;;5072484;28;20400;-61
2022/06/24 11:35:22;;;;;;;3.67;2.50;;;23.50;66.80;;;;;;5072912;28;20091;-61
2022/06/24 11:37:48;;;;;;;4.60;2.05;;;23.50;66.70;;;;;;5072321;28;20499;-60
2022/06/24 11:40:20;;;;;;;5.55;1.95;;;23.60;66.70;;;;;;5072777;28;20044;-61
2022/06/24 11:42:46;;;;;;;4.22;2.38;;;23.60;66.60;;;;;;5070862;28;20045;-61
2022/06/24 11:45:12;;;;;;;3.40;1.98;;;23.60;66.60;;;;;;5072097;28;20181;-61
2022/06/24 11:47:37;;;;;;;5.10;1.80;;;23.60;66.60;;;;;;5066590;28;20102;-60
2022/06/24 11:50:03;;;;;;;4.90;1.80;;;23.60;66.70;;;;;;5071780;28;20049;-61
2022/06/24 11:52:29;;;;;;;4.18;1.70;;;23.60;66.80;;;;;;5071635;28;20439;-60
2022/06/24 11:54:54;;;;;;;4.03;2.22;;;23.60;66.90;;;;;;5072425;28;20067;-61
2022/06/24 11:57:21;;;;;;;3.25;2.00;;;23.70;66.90;;;;;;5072253;28;20443;-60
2022/06/24 11:59:47;;;;;;;4.10;2.00;;;23.70;66.90;;;;;;5071996;28;20040;-60
2022/06/24 12:02:14;;;;;;;2.95;1.73;;;23.70;67.00;;;;;;5070594;28;20049;-61
2022/06/24 12:04:40;;;;;;;4.22;1.95;;;23.70;67.00;;;;;;5071034;28;20185;-60
2022/06/24 12:07:06;;;;;;;2.90;1.90;;;23.70;67.10;;;;;;5070731;28;20500;-61
2022/06/24 12:09:31;;;;;;;2.60;1.90;;;23.70;67.10;;;;;;5071612;28;20362;-61
2022/06/24 12:12:07;;;;;;;5.05;2.13;;;23.70;67.00;;;;;;5068845;28;20067;-60
2022/06/24 12:14:33;;;;;;;5.55;1.80;;;23.80;67.00;;;;;;5069577;28;20108;-60
2022/06/24 12:17:06;;;;;;;3.42;2.13;;;23.80;67.10;;;;;;5070550;28;20119;-60
2022/06/24 12:19:39;;;;;;;3.03;1.95;;;23.80;67.20;;;;;;5071368;28;20090;-60
2022/06/24 12:22:10;;;;;;;3.75;2.03;;;23.80;67.20;;;;;;5069235;28;20049;-60
2022/06/24 12:24:36;;;;;;;2.80;1.90;;;23.90;67.90;;;;;;5072016;28;20049;-61
2022/06/24 12:27:04;;;;;;;3.83;1.75;;;23.90;67.30;;;;;;5070852;28;20036;-61
2022/06/24 12:29:40;;;;;;;3.38;2.03;;;23.90;67.30;;;;;;5072035;28;20033;-60
2022/06/24 12:32:08;;;;;;;3.83;1.83;;;23.90;67.40;;;;;;5051538;28;20499;-61
2022/06/24 12:34:38;;;;;;;3.40;1.98;;;23.90;67.30;;;;;;5071285;28;20032;-60
2022/06/24 12:37:06;;;;;;;3.67;2.05;;;24.00;67.40;;;;;;5068856;28;20523;-60
2022/06/24 12:39:35;;;;;;;3.35;1.70;;;24.00;67.40;;;;;;5071643;28;20041;-60
2022/06/24 12:42:01;;;;;;;2.13;1.50;;;24.00;67.30;;;;;;5071002;28;20044;-60
2022/06/24 12:44:55;;;;;;;3.20;1.80;;;24.00;67.30;;;;;;5071771;28;20070;-60
2022/06/24 12:53:03;;;;;;;3.47;1.92;;;24.10;67.50;;;;;;5071330;28;20053;-60
2022/06/24 12:55:30;;;;;;;2.67;1.85;;;24.10;67.30;;;;;;5071302;28;20384;-60
2022/06/24 12:57:56;;;;;;;2.75;1.83;;;24.10;67.40;;;;;;5071546;28;20040;-60
2022/06/24 13:00:22;;;;;;;3.33;1.83;;;24.10;67.50;;;;;;5071712;28;20136;-61
2022/06/24 13:02:54;;;;;;;5.35;2.10;;;24.10;67.50;;;;;;5070759;28;20087;-60